Latest Coastal Weather Observations for Maria Island

IDT60701

Issued at 11:45 am EST Thursday 18 September 2014 (issued every 10 minutes, with the page automatically refreshed every 10 minutes)

About coastal observations | Map of coastal stations | Coastal observations for TAS | Marine services | Other Formats
Station Details ID: 092124 Name: MARIA ISLAND (POINT LESUEUR) Lat: -42.66 Lon: 148.02 Height: 28.0 m
Data from the previous 72 hours. | See also: Recent months at Maria Island
Date/Time
EST
Temp

°C
Wind Pressure Rain
since 9am
mm
Weather Cloud Vis
km
Sea
Height
m
Swell
Dir
 
Speed
knots
Gust
knots
hPa Trend Height
m
Period
s
Dir
18/11:30am 10.7 SW 16 25 1014.3 - 0.0 - - - - - - -
18/11:00am 9.3 SW 16 23 1014.8 - 0.0 - - - - - - -
18/10:30am 9.3 SW 17 20 1015.1 - 0.0 - - - - - - -
18/10:00am 9.8 SW 19 24 1014.9 - 0.0 - - - - - - -
18/09:30am 8.9 SW 19 24 1014.9 - 0.0 - - - - - - -
18/09:00am 9.4 SW 22 29 1014.3 - 5.2 - - - - - - -
18/08:30am 9.0 SW 21 26 1014.1 - 5.2 - - - - - - -
18/08:00am 8.6 SW 21 26 1013.8 - 5.2 - - - - - - -
18/07:30am 7.5 SW 22 28 1013.5 - 5.2 - - - - - - -
18/07:00am 7.7 SW 21 28 1013.0 - 5.2 - - - - - - -
18/06:30am 7.7 SW 24 31 1012.3 - 5.0 - - - - - - -
18/06:00am 7.2 SW 28 35 1011.9 - 5.0 Rain - - - - - -
18/05:37am 8.1 SW 24 36 1011.4 - 4.8 - - - - - - -
18/05:30am 7.9 SW 22 28 1011.3 - 4.8 - - - - - - -
18/05:00am 8.4 SW 22 27 1010.8 - 4.6 - - - - - - -
18/04:30am 8.4 SW 25 30 1010.5 - 4.6 - - - - - - -
18/04:00am 8.2 SW 23 30 1010.3 - 4.6 - - - - - - -
18/03:30am 8.2 SW 26 37 1009.9 - 4.6 - - - - - - -
18/03:22am 8.1 SW 26 37 1009.7 - 4.6 - - - - - - -
18/03:00am 8.3 SW 22 28 1009.7 - 4.6 Rain - - - - - -
18/02:30am 8.1 SW 22 28 1009.4 - 4.4 - - - - - - -
18/02:00am 7.9 SW 27 35 1009.1 - 3.4 - - - - - - -
18/01:30am 7.9 SW 26 37 1008.7 - 3.2 - - - - - - -
18/01:24am 7.9 SW 26 37 1008.6 - 3.0 - - - - - - -
18/01:00am 8.2 SW 27 35 1008.3 - 3.0 - - - - - - -
18/12:33am 8.7 SW 25 37 1007.6 - 2.8 - - - - - - -
18/12:30am 8.5 SW 23 29 1007.7 - 2.8 - - - - - - -
18/12:19am 8.5 WSW 19 30 1007.8 - 2.8 - - - - - - -
18/12:00am 8.3 WSW 22 29 1007.4 - 2.8 - - - - - - -
 
Date/Time
EST
Temp

°C
Wind Pressure Rain
since 9am
mm
Weather Cloud Vis
km
Sea
Height
m
Swell
Dir
 
Speed
knots
Gust
knots
hPa Trend Height
m
Period
s
Dir
17/11:30pm 8.3 SW 20 30 1007.0 - 2.8 - - - - - - -
17/11:00pm 7.8 WSW 18 25 1007.1 - 2.8 - - - - - - -
17/10:30pm 7.6 WSW 14 19 1006.9 - 2.8 - - - - - - -
17/10:00pm 7.4 W 14 20 1006.6 - 2.8 - - - - - - -
17/09:30pm 7.6 W 15 20 1006.6 - 2.8 - - - - - - -
17/09:00pm 7.9 WSW 14 19 1006.4 - 2.8 - - - - - - -
17/08:30pm 8.3 WSW 17 22 1006.1 - 2.8 - - - - - - -
17/08:17pm 8.4 WSW 20 31 1005.7 - 2.8 - - - - - - -
17/08:00pm 8.6 WSW 20 27 1005.5 - 2.8 - - - - - - -
17/07:30pm 8.7 SW 23 28 1005.1 - 2.8 - - - - - - -
17/07:04pm 8.8 SW 23 33 1004.9 - 2.8 - - - - - - -
17/07:00pm 8.8 SW 24 34 1004.8 - 2.8 - - - - - - -
17/06:30pm 9.2 SW 20 26 1004.4 - 2.8 - - - - - - -
17/06:00pm 9.1 SW 22 30 1004.1 - 2.8 - - - - - - -
17/05:30pm 9.2 SW 23 32 1003.7 - 2.8 - - - - - - -
17/05:21pm 9.4 SW 21 32 1003.6 - 2.8 - - - - - - -
17/05:00pm 9.4 SW 27 34 1003.3 - 2.8 - - - - - - -
17/04:30pm 8.6 SW 26 34 1003.0 - 2.8 - - - - - - -
17/04:20pm 9.1 SW 19 32 1002.9 - 2.6 - - - - - - -
17/04:00pm 9.6 SW 19 25 1002.6 - 2.6 - - - - - - -
17/03:30pm 9.3 SW 16 22 1002.2 - 2.6 - - - - - - -
17/03:00pm 8.9 SW 17 26 1001.8 - 2.6 - - - - - - -
17/02:30pm 8.6 SW 20 29 1001.8 - 2.6 - - - - - - -
17/02:00pm 8.5 SSW 20 26 1001.9 - 2.6 - - - - - - -
17/01:30pm 7.9 SSW 23 28 1001.9 - 2.6 - - - - - - -
17/01:00pm 7.2 SW 27 34 1001.9 - 2.6 - - - - - - -
17/12:51pm 7.7 WSW 23 34 1002.0 - 2.6 - - - - - - -
17/12:50pm 8.0 WSW 22 31 1002.0 - 2.6 - - - - - - -
17/12:30pm 8.5 W 16 20 1002.0 - 2.4 - - - - - - -
17/12:00pm 8.3 W 20 27 1001.9 - 1.2 Rain - - - - - -
17/11:54am 10.4 W 21 25 1001.6 - 0.0 - - - - - - -
17/11:30am 11.5 NNE 3 6 1001.7 - 0.0 - - - - - - -
17/11:00am 11.9 N 8 10 1002.0 - 0.0 - - - - - - -
17/10:30am 11.7 NNW 10 11 1002.3 - 0.0 - - - - - - -
17/10:00am 10.7 NNW 11 13 1002.8 - 0.0 - - - - - - -
17/09:30am 10.0 NW 5 7 1003.3 - 0.0 - - - - - - -
17/09:00am 9.7 NW 4 6 1003.7 - 0.0 - - - - - - -
17/08:30am 9.6 NNW 7 9 1003.9 - 0.0 - - - - - - -
17/08:00am 9.1 WNW 10 12 1004.0 - 0.0 - - - - - - -
17/07:30am 9.0 WNW 11 12 1004.1 - 0.0 - - - - - - -
17/07:00am 8.6 WNW 10 12 1004.3 - 0.0 - - - - - - -
17/06:30am 8.7 NW 3 7 1004.4 - 0.0 - - - - - - -
17/06:00am 8.6 N 3 5 1004.8 - 0.0 - - - - - - -
17/05:30am 9.1 W 8 11 1004.9 - 0.0 - - - - - - -
17/05:00am 8.7 NNW 5 8 1005.1 - 0.0 - - - - - - -
17/04:30am 9.0 N 5 7 1005.2 - 0.0 - - - - - - -
17/04:00am 9.4 N 6 7 1005.5 - 0.0 - - - - - - -
17/03:30am 9.5 NW 3 8 1005.8 - 0.0 - - - - - - -
17/03:00am 9.1 N 4 7 1006.0 - 0.0 - - - - - - -
17/02:30am 9.0 N 4 6 1006.3 - 0.0 - - - - - - -
17/02:00am 8.3 WNW 3 4 1007.0 - 0.0 - - - - - - -
17/01:30am 8.0 WNW 5 6 1007.2 - 0.0 - - - - - - -
17/01:00am 8.3 NNW 7 8 1007.4 - 0.0 - - - - - - -
17/12:30am 8.4 NW 6 8 1007.5 - 0.0 - - - - - - -
17/12:00am 8.7 NNW 7 8 1007.5 - 0.0 - - - - - - -
 
Date/Time
EST
Temp

°C
Wind Pressure Rain
since 9am
mm
Weather Cloud Vis
km
Sea
Height
m
Swell
Dir
 
Speed
knots
Gust
knots
hPa Trend Height
m
Period
s
Dir
16/11:30pm 8.6 NW 7 9 1007.7 - 0.0 - - - - - - -
16/11:00pm 8.9 NW 6 7 1008.1 - 0.0 - - - - - - -
16/10:30pm 8.9 NW 7 8 1008.4 - 0.0 - - - - - - -
16/10:00pm 8.9 WNW 6 7 1008.5 - 0.0 - - - - - - -
16/09:30pm 10.0 NNW 8 12 1008.6 - 0.0 - - - - - - -
16/09:00pm 10.5 N 12 13 1008.8 - 0.0 - - - - - - -
16/08:30pm 11.0 N 15 17 1008.6 - 0.0 - - - - - - -
16/08:00pm 11.1 N 16 18 1008.7 - 0.0 - - - - - - -
16/07:30pm 10.9 N 14 17 1008.7 - 0.0 - - - - - - -
16/07:00pm 11.0 N 16 19 1008.6 - 0.0 - - - - - - -
16/06:30pm 11.2 N 18 21 1008.6 - 0.0 - - - - - - -
16/06:00pm 11.6 N 18 21 1008.7 - 0.0 - - - - - - -
16/05:30pm 11.7 N 18 20 1008.5 - 0.0 - - - - - - -
16/05:00pm 11.8 N 16 21 1008.6 - 0.0 - - - - - - -
16/04:30pm 12.2 N 15 18 1008.7 - 0.0 - - - - - - -
16/04:00pm 12.1 NNE 16 19 1008.6 - 0.0 - - - - - - -
16/03:30pm 12.3 N 16 19 1008.7 - 0.0 - - - - - - -
16/03:00pm 12.3 NNE 15 17 1009.0 - 0.0 - - - - - - -
16/02:30pm 12.4 NNE 13 16 1009.1 - 0.0 - - - - - - -
16/02:00pm 12.6 NNE 13 17 1009.2 - 0.0 - - - - - - -
16/01:30pm 12.9 NNE 13 16 1009.4 - 0.0 - - - - - - -
16/01:00pm 12.9 NNE 13 17 1009.9 - 0.0 - - - - - - -
16/12:30pm 12.8 N 15 17 1010.5 - 0.0 - - - - - - -
16/12:00pm 12.6 N 14 18 1010.9 - 0.0 - - - - - - -
16/11:30am 11.9 N 13 16 1011.4 - 0.0 - - - - - - -
16/11:00am 11.8 N 15 17 1011.8 - 0.0 - - - - - - -
16/10:30am 11.5 N 11 14 1012.4 - 0.0 - - - - - - -
16/10:00am 11.1 N 8 10 1012.7 - 0.0 - - - - - - -
16/09:30am 10.0 N 4 5 1013.1 - 0.0 - - - - - - -
16/09:00am 9.6 N 5 6 1013.4 - 0.0 - - - - - - -
16/08:30am 9.3 N 5 6 1013.5 - 0.0 - - - - - - -
16/08:00am 9.2 N 5 6 1013.5 - 0.0 - - - - - - -
16/07:30am 8.1 NW 4 6 1013.6 - 0.0 - - - - - - -
16/07:00am 7.3 NNW 4 5 1013.5 - 0.0 - - - - - - -
16/06:30am 7.6 NW 5 6 1013.4 - 0.0 - - - - - - -
16/06:00am 8.3 N 7 9 1013.3 - 0.0 - - - - - - -
16/05:30am 8.5 NNW 8 9 1013.2 - 0.0 - - - - - - -
16/05:00am 8.0 NW 7 8 1013.4 - 0.0 - - - - - - -
16/04:30am 8.0 NW 7 8 1013.3 - 0.0 - - - - - - -
16/04:00am 8.3 NNW 8 9 1013.2 - 0.0 - - - - - - -
16/03:30am 7.4 NNW 2 3 1013.4 - 0.0 - - - - - - -
16/03:00am 7.2 CALM 0 2 1013.6 - 0.0 - - - - - - -
16/02:30am 7.7 CALM 0 0 1013.9 - 0.0 - - - - - - -
16/02:00am 8.2 CALM 0 1 1014.3 - 0.0 - - - - - - -
16/01:30am 7.8 NW 3 4 1014.7 - 0.0 - - - - - - -
16/01:00am 8.4 CALM 0 1 1015.1 - 0.0 - - - - - - -
16/12:30am 8.6 WNW 2 3 1015.2 - 0.0 - - - - - - -
16/12:00am 8.9 WNW 2 3 1015.5 - 0.0 - - - - - - -
 
Date/Time
EST
Temp

°C
Wind Pressure Rain
since 9am
mm
Weather Cloud Vis
km
Sea
Height
m
Swell
Dir
 
Speed
knots
Gust
knots
hPa Trend Height
m
Period
s
Dir
15/11:30pm 8.8 WNW 4 5 1015.7 - 0.0 - - - - - - -
15/11:00pm 8.3 NE 4 4 1016.0 - 0.0 - - - - - - -
15/10:30pm 8.3 ENE 4 5 1016.2 - 0.0 - - - - - - -
15/10:00pm 8.7 E 4 5 1016.2 - 0.0 - - - - - - -
15/09:30pm 8.7 ENE 5 6 1016.4 - 0.0 - - - - - - -
15/09:00pm 8.6 ENE 5 6 1016.6 - 0.0 - - - - - - -
15/08:30pm 8.0 ENE 6 6 1016.7 - 0.0 - - - - - - -
15/08:00pm 7.9 E 4 5 1016.7 - 0.0 - - - - - - -
15/07:30pm 8.6 E 4 5 1016.6 - 0.0 - - - - - - -
15/07:00pm 8.9 ESE 4 5 1016.6 - 0.0 - - - - - - -
15/06:30pm 9.1 ESE 6 8 1016.5 - 0.0 - - - - - - -
15/06:00pm 9.5 SE 7 10 1016.3 - 0.0 - - - - - - -
15/05:30pm 9.9 SE 8 12 1016.2 - 0.0 - - - - - - -
15/05:00pm 10.3 SE 8 12 1016.2 - 0.0 - - - - - - -
15/04:30pm 10.5 SSE 8 10 1015.9 - 0.0 - - - - - - -
15/04:00pm 11.4 SSE 7 12 1015.9 - 0.0 - - - - - - -
15/03:30pm 11.6 SSE 10 14 1015.8 - 0.0 - - - - - - -
15/03:00pm 11.9 S 11 13 1016.1 - 0.0 - - - - - - -
15/02:30pm 11.9 S 12 14 1016.2 - 0.0 - - - - - - -
15/02:00pm 11.6 S 11 14 1016.6 - 0.0 - - - - - - -
15/01:30pm 11.7 S 11 14 1016.8 - 0.0 - - - - - - -
15/01:00pm 11.4 S 12 14 1017.1 - 0.0 - - - - - - -
15/12:30pm 11.5 S 13 15 1017.4 - 0.0 - - - - - - -
15/12:00pm 11.6 S 10 14 1017.9 - 0.0 - - - - - - -

Other Formats:

Comma delimited format used in spreadsheet applications
http://www.bom.gov.au/fwo/IDT60701/IDT60701.95988.axf

JavaScript Object Notation format (JSON) in row-major order
http://www.bom.gov.au/fwo/IDT60701/IDT60701.95988.json